createdAt,value
2018-01-10T00:00:21.699Z,95631.78
2018-01-10T00:02:49.293Z,95629.20
2018-01-10T00:05:16.773Z,95624.89
2018-01-10T00:07:44.289Z,95613.39
2018-01-10T00:10:11.852Z,95601.04
2018-01-10T00:12:39.404Z,95597.59
2018-01-10T00:15:06.950Z,95587.79
2018-01-10T00:17:34.490Z,95585.77
2018-01-10T00:20:02.003Z,95584.07
2018-01-10T00:22:29.551Z,95563.63
2018-01-10T00:24:57.104Z,95573.34
2018-01-10T00:27:24.658Z,95581.02
2018-01-10T00:29:52.146Z,95579.38
2018-01-10T00:32:19.644Z,95578.98
2018-01-10T00:34:47.137Z,95576.94
2018-01-10T00:37:14.723Z,95579.02
2018-01-10T00:39:42.268Z,95573.88
2018-01-10T00:42:09.778Z,95574.27
2018-01-10T00:44:37.253Z,95570.88
2018-01-10T00:47:04.740Z,95560.66
2018-01-10T00:49:32.287Z,95542.77
2018-01-10T00:51:59.843Z,95563.57
2018-01-10T00:54:27.391Z,95566.52
2018-01-10T00:56:54.939Z,95558.02
2018-01-10T00:59:22.419Z,95559.80
2018-01-10T01:01:49.967Z,95562.36
2018-01-10T01:04:17.450Z,95568.73
2018-01-10T01:06:44.940Z,95552.16
2018-01-10T01:09:12.495Z,95555.05
2018-01-10T01:11:40.979Z,95549.08
2018-01-10T01:14:08.519Z,95547.38
2018-01-10T01:16:35.990Z,95544.52
2018-01-10T01:19:03.567Z,95533.50
2018-01-10T01:21:31.049Z,95528.75
2018-01-10T01:23:58.763Z,95523.64
2018-01-10T01:26:26.315Z,95522.00
2018-01-10T01:28:53.790Z,95520.25
2018-01-10T01:31:21.368Z,95518.11
2018-01-10T01:33:48.916Z,95512.58
2018-01-10T01:36:16.390Z,95515.08
2018-01-10T01:38:43.894Z,95517.67
2018-01-10T01:41:11.435Z,95521.14
2018-01-10T01:43:38.986Z,95508.75
2018-01-10T01:46:06.531Z,95506.17
2018-01-10T01:48:34.078Z,95513.42
2018-01-10T01:51:02.113Z,95498.92
2018-01-10T01:53:29.606Z,95493.78
2018-01-10T01:55:57.146Z,95482.28
2018-01-10T01:58:24.641Z,95480.95
2018-01-10T02:00:52.191Z,95488.67
2018-01-10T02:03:19.672Z,95487.84
2018-01-10T02:05:47.223Z,95486.59
2018-01-10T02:08:14.708Z,95484.45
2018-01-10T02:10:42.305Z,95479.76
2018-01-10T02:13:09.782Z,95470.38
2018-01-10T02:15:37.330Z,95466.54
2018-01-10T02:18:04.884Z,95467.76
2018-01-10T02:20:32.365Z,95452.39
2018-01-10T02:22:59.842Z,95444.73
2018-01-10T02:25:27.325Z,95448.59
2018-01-10T02:28:00.532Z,95443.55
2018-01-10T02:30:28.079Z,95440.19
2018-01-10T02:32:55.553Z,95442.86
2018-01-10T02:35:23.100Z,95437.81
2018-01-10T02:37:50.618Z,95438.25
2018-01-10T02:40:18.102Z,95434.81
2018-01-10T02:42:45.592Z,95419.48
2018-01-10T02:45:13.073Z,95428.36
2018-01-10T02:47:40.556Z,95421.95
2018-01-10T02:50:08.034Z,95418.05
2018-01-10T02:52:35.587Z,95429.94
2018-01-10T02:55:03.183Z,95426.61
2018-01-10T02:57:30.685Z,95432.61
2018-01-10T02:59:58.168Z,95429.28
2018-01-10T03:02:25.715Z,95430.17
2018-01-10T03:04:53.301Z,95422.92
2018-01-10T03:07:20.764Z,95416.95
2018-01-10T03:09:48.318Z,95413.54
2018-01-10T03:12:15.834Z,95424.97
2018-01-10T03:14:43.388Z,95416.00
2018-01-10T03:17:10.932Z,95414.70
2018-01-10T03:19:38.483Z,95414.22
2018-01-10T03:22:06.035Z,95411.22
2018-01-10T03:24:33.509Z,95415.56
2018-01-10T03:27:01.056Z,95408.78
2018-01-10T03:29:28.663Z,95405.81
2018-01-10T03:31:56.213Z,95396.07
2018-01-10T03:34:23.693Z,95395.66
2018-01-10T03:36:51.244Z,95396.94
2018-01-10T03:39:18.733Z,95396.48
2018-01-10T03:41:46.213Z,95402.39
2018-01-10T03:44:13.748Z,95400.34
2018-01-10T03:46:41.263Z,95410.13
2018-01-10T03:49:08.813Z,95404.16
2018-01-10T03:51:36.293Z,95400.26
2018-01-10T03:54:03.775Z,95414.31
2018-01-10T03:56:31.259Z,95405.34
2018-01-10T03:58:58.741Z,95404.51
2018-01-10T04:01:26.229Z,95397.67
2018-01-10T04:03:53.717Z,95402.34
2018-01-10T04:06:21.267Z,95395.89
2018-01-10T04:08:48.755Z,95402.60
2018-01-10T04:11:16.229Z,95407.27
2018-01-10T04:13:43.797Z,95402.22
2018-01-10T04:16:11.351Z,95400.44
2018-01-10T04:18:38.938Z,95395.65
2018-01-10T04:21:06.482Z,95391.05
2018-01-10T04:23:34.039Z,95381.24
2018-01-10T04:26:01.523Z,95372.23
2018-01-10T04:28:29.084Z,95376.91
2018-01-10T04:30:56.603Z,95374.31
2018-01-10T04:33:24.167Z,95377.28
2018-01-10T04:35:51.653Z,95375.12
2018-01-10T04:38:19.207Z,95367.75
2018-01-10T04:40:46.692Z,95360.17
2018-01-10T04:43:14.169Z,95353.69
2018-01-10T04:45:41.718Z,95346.02
2018-01-10T04:48:09.271Z,95334.17
2018-01-10T04:50:36.745Z,95329.61
2018-01-10T04:53:04.235Z,95326.22
2018-01-10T04:55:31.728Z,95319.38
2018-01-10T04:57:59.242Z,95316.77
2018-01-10T05:00:26.800Z,95321.02
2018-01-10T05:02:54.368Z,95321.08
2018-01-10T05:05:21.948Z,95310.89
2018-01-10T05:07:49.442Z,95315.14
2018-01-10T05:10:16.921Z,95320.34
2018-01-10T05:12:44.410Z,95321.64
2018-01-10T05:15:11.961Z,95322.06
2018-01-10T05:17:39.455Z,95313.56
2018-01-10T05:20:06.995Z,95307.14
2018-01-10T05:22:34.550Z,95305.45
2018-01-10T05:25:02.096Z,95302.45
2018-01-10T05:27:29.573Z,95297.73
2018-01-10T05:29:57.121Z,95291.31
2018-01-10T05:32:24.601Z,95287.03
2018-01-10T05:34:52.074Z,95280.73
2018-01-10T05:37:19.584Z,95278.66
2018-01-10T05:39:47.061Z,95271.09
2018-01-10T05:42:14.614Z,95268.59
2018-01-10T05:44:42.173Z,95268.69
2018-01-10T05:47:09.860Z,95266.99
2018-01-10T05:49:37.414Z,95285.73
2018-01-10T05:52:04.889Z,95293.02
2018-01-10T05:54:32.455Z,95299.79
2018-01-10T05:56:59.934Z,95295.95
2018-01-10T05:59:27.522Z,95304.42
2018-01-10T06:01:55.034Z,95301.87
2018-01-10T06:04:22.588Z,95298.13
2018-01-10T06:06:50.171Z,95298.52
2018-01-10T06:09:17.722Z,95292.19
2018-01-10T06:11:45.282Z,95286.22
2018-01-10T06:14:12.827Z,95293.05
2018-01-10T06:16:40.311Z,95280.25
2018-01-10T06:19:07.816Z,95276.41
2018-01-10T06:21:35.364Z,95283.16
2018-01-10T06:24:02.944Z,95299.79
2018-01-10T06:26:30.437Z,95299.02
2018-01-10T06:28:57.995Z,95297.77
2018-01-10T06:31:25.555Z,95287.62
2018-01-10T06:33:53.107Z,95278.27
2018-01-10T06:36:20.668Z,95274.84
2018-01-10T06:38:48.154Z,95265.84
2018-01-10T06:41:15.636Z,95264.56
2018-01-10T06:43:43.187Z,95256.87
2018-01-10T06:46:10.761Z,95272.23
2018-01-10T06:48:38.255Z,95272.70
2018-01-10T06:51:05.841Z,95276.53
2018-01-10T06:53:33.326Z,95275.73
2018-01-10T06:56:00.875Z,95271.81
2018-01-10T06:58:28.422Z,95279.48
2018-01-10T07:00:55.971Z,95275.16
2018-01-10T07:03:23.523Z,95262.42
2018-01-10T07:05:51.016Z,95256.45
2018-01-10T07:08:18.497Z,95249.77
2018-01-10T07:10:46.043Z,95258.72
2018-01-10T07:13:13.529Z,95247.22
2018-01-10T07:15:41.025Z,95247.66
2018-01-10T07:18:08.529Z,95241.70
2018-01-10T07:20:36.017Z,95253.61
2018-01-10T07:23:03.611Z,95252.75
2018-01-10T07:25:31.162Z,95246.80
2018-01-10T07:27:58.711Z,95244.25
2018-01-10T07:30:26.259Z,95244.31
2018-01-10T07:32:53.742Z,95242.20
2018-01-10T07:35:21.295Z,95234.16
2018-01-10T07:37:50.625Z,95227.42
2018-01-10T07:40:18.109Z,95211.55
2018-01-10T07:42:45.589Z,95209.00
2018-01-10T07:45:13.074Z,95206.44
2018-01-10T07:47:40.626Z,95193.28
2018-01-10T07:50:08.166Z,95191.14
2018-01-10T07:52:35.726Z,95187.28
2018-01-10T07:55:03.319Z,95184.34
2018-01-10T07:57:30.797Z,95183.96
2018-01-10T07:59:58.287Z,95175.82
2018-01-10T08:02:25.842Z,95156.66
2018-01-10T08:04:53.391Z,95153.25
2018-01-10T08:07:21.183Z,95140.89
2018-01-10T08:09:48.738Z,95134.06
2018-01-10T08:12:16.254Z,95130.26
2018-01-10T08:14:43.745Z,95133.67
2018-01-10T08:17:11.298Z,95137.57
2018-01-10T08:19:38.852Z,95135.46
2018-01-10T08:22:06.332Z,95118.48
2018-01-10T08:24:33.813Z,95112.06
2018-01-10T08:27:01.370Z,95115.03
2018-01-10T08:29:28.930Z,95125.25
2018-01-10T08:31:56.409Z,95127.70
2018-01-10T08:34:23.982Z,95120.04
2018-01-10T08:36:51.533Z,95126.52
2018-01-10T08:39:19.042Z,95119.72
2018-01-10T08:41:46.587Z,95109.60
2018-01-10T08:44:14.069Z,95103.22
2018-01-10T08:46:41.577Z,95113.02
2018-01-10T08:49:09.132Z,95120.68
2018-01-10T08:51:36.674Z,95116.78
2018-01-10T08:54:04.219Z,95101.88
2018-01-10T08:56:31.706Z,95082.69
2018-01-10T08:58:59.256Z,95072.47
2018-01-10T09:01:26.807Z,95067.04
2018-01-10T09:03:54.291Z,95073.02
2018-01-10T09:06:21.836Z,95088.88
2018-01-10T09:08:49.315Z,95092.62
2018-01-10T09:11:16.894Z,95078.56
2018-01-10T09:13:44.439Z,95068.77
2018-01-10T09:16:11.995Z,95050.89
2018-01-10T09:18:39.544Z,95045.33
2018-01-10T09:21:07.100Z,95043.61
2018-01-10T09:23:34.654Z,95029.56
2018-01-10T09:26:02.130Z,95019.82
2018-01-10T09:28:29.716Z,95026.17
2018-01-10T09:30:57.280Z,95015.16
2018-01-10T09:33:24.766Z,95025.77
2018-01-10T09:35:52.310Z,95025.77
2018-01-10T09:38:19.864Z,95020.66
2018-01-10T09:40:47.462Z,95015.09
2018-01-10T09:43:14.950Z,95012.89
2018-01-10T09:45:42.431Z,95002.36
2018-01-10T09:48:09.979Z,94992.24
2018-01-10T09:50:37.462Z,94982.02
2018-01-10T09:53:05.110Z,94982.06
2018-01-10T09:55:32.654Z,94969.29
2018-01-10T09:58:00.203Z,94965.46
2018-01-10T10:00:27.728Z,94956.52
2018-01-10T10:02:55.264Z,94937.78
2018-01-10T10:05:22.788Z,94948.76
2018-01-10T10:07:51.107Z,94944.92
2018-01-10T10:10:18.695Z,94950.03
2018-01-10T10:12:46.194Z,94938.47
2018-01-10T10:15:13.744Z,94945.75
2018-01-10T10:17:41.287Z,94935.64
2018-01-10T10:20:08.856Z,94928.42
2018-01-10T10:22:36.372Z,94912.34
2018-01-10T10:25:03.857Z,94904.20
2018-01-10T10:27:31.407Z,94901.58
2018-01-10T10:29:58.957Z,94887.94
2018-01-10T10:32:26.511Z,94886.59
2018-01-10T10:34:53.997Z,94887.46
2018-01-10T10:37:21.555Z,94879.77
2018-01-10T10:39:49.147Z,94870.83
2018-01-10T10:42:16.630Z,94870.83
2018-01-10T10:44:44.124Z,94871.79
2018-01-10T10:47:11.621Z,94862.85
2018-01-10T10:49:39.172Z,94846.70
2018-01-10T10:52:06.685Z,94848.02
2018-01-10T10:54:34.255Z,94841.25
2018-01-10T10:57:01.804Z,94840.14
2018-01-10T10:59:29.351Z,94830.13
2018-01-10T11:01:56.891Z,94819.84
2018-01-10T11:04:24.440Z,94820.30
2018-01-10T11:06:51.918Z,94806.22
2018-01-10T11:09:19.463Z,94801.91
2018-01-10T11:11:47.020Z,94795.89
2018-01-10T11:14:14.501Z,94796.31
2018-01-10T11:16:42.043Z,94794.20
2018-01-10T11:19:09.627Z,94796.72
2018-01-10T11:21:37.173Z,94792.79
2018-01-10T11:24:04.798Z,94800.45
2018-01-10T11:26:32.285Z,94807.66
2018-01-10T11:28:59.776Z,94798.31
2018-01-10T11:31:27.290Z,94795.75
2018-01-10T11:33:54.829Z,94785.09
2018-01-10T11:36:22.355Z,94796.93
2018-01-10T11:38:49.856Z,94789.23
2018-01-10T11:41:17.402Z,94797.72
2018-01-10T11:43:44.962Z,94791.33
2018-01-10T11:46:12.586Z,94792.98
2018-01-10T11:48:40.252Z,94778.49
2018-01-10T11:51:07.908Z,94779.28
2018-01-10T11:53:35.420Z,94775.48
2018-01-10T11:56:02.974Z,94778.49
2018-01-10T11:58:30.545Z,94774.73
2018-01-10T12:00:59.011Z,94774.31
2018-01-10T12:03:26.591Z,94763.55
2018-01-10T12:05:54.102Z,94758.02
2018-01-10T12:08:21.585Z,94759.71
2018-01-10T12:10:49.295Z,94765.69
2018-01-10T12:13:16.892Z,94764.89
2018-01-10T12:15:44.444Z,94766.59
2018-01-10T12:18:11.969Z,94755.09
2018-01-10T12:20:39.531Z,94751.74
2018-01-10T12:23:07.024Z,94742.71
2018-01-10T12:25:34.509Z,94752.47
2018-01-10T12:28:02.042Z,94736.20
2018-01-10T12:30:29.594Z,94735.30
2018-01-10T12:32:57.073Z,94749.39
2018-01-10T12:35:24.559Z,94730.23
2018-01-10T12:37:52.112Z,94718.73
2018-01-10T12:40:19.689Z,94718.73
2018-01-10T12:42:48.138Z,94712.35
2018-01-10T12:45:15.736Z,94720.53
2018-01-10T12:47:43.316Z,94743.11
2018-01-10T12:50:10.804Z,94746.98
2018-01-10T12:52:38.330Z,94755.47
2018-01-10T12:55:05.821Z,94766.92
2018-01-10T12:57:33.379Z,94760.99
2018-01-10T13:00:00.878Z,94760.58
2018-01-10T13:02:28.393Z,94775.38
2018-01-10T13:04:55.951Z,94763.03
2018-01-10T13:07:23.945Z,94774.48
2018-01-10T13:09:51.470Z,94765.45
2018-01-10T13:12:19.032Z,94779.70
2018-01-10T13:14:46.593Z,94769.52
2018-01-10T13:17:15.024Z,94763.99
2018-01-10T13:19:42.552Z,94773.31
2018-01-10T13:22:10.117Z,94772.83
2018-01-10T13:24:37.697Z,94780.00
2018-01-10T13:27:05.502Z,94781.70
2018-01-10T13:29:32.999Z,94778.77
2018-01-10T13:32:00.506Z,94783.88
2018-01-10T13:34:28.082Z,94784.70
2018-01-10T13:36:55.720Z,94789.29
2018-01-10T13:39:23.279Z,94791.98
2018-01-10T13:41:50.779Z,94794.92
2018-01-10T13:44:18.276Z,94796.20
2018-01-10T13:46:45.856Z,94782.63
2018-01-10T13:49:13.437Z,94777.94
2018-01-10T13:51:40.990Z,94772.37
2018-01-10T13:54:08.486Z,94772.83
2018-01-10T13:56:35.978Z,94763.41
2018-01-10T13:59:03.580Z,94759.61
2018-01-10T14:01:32.056Z,94756.08
2018-01-10T14:03:59.644Z,94742.86
2018-01-10T14:06:27.139Z,94740.27
2018-01-10T14:08:54.728Z,94727.39
2018-01-10T14:11:22.297Z,94717.63
2018-01-10T14:13:49.911Z,94712.97
2018-01-10T14:16:17.475Z,94702.37
2018-01-10T14:18:45.066Z,94698.47
2018-01-10T14:21:12.530Z,94693.81
2018-01-10T14:23:40.117Z,94692.91
2018-01-10T14:26:07.709Z,94687.38
2018-01-10T14:28:35.219Z,94686.52
2018-01-10T14:31:02.792Z,94685.24
2018-01-10T14:33:30.323Z,94680.59
2018-01-10T14:35:57.895Z,94680.66
2018-01-10T14:38:25.388Z,94678.44
2018-01-10T14:40:53.004Z,94678.44
2018-01-10T14:43:20.491Z,94669.91
2018-01-10T14:45:48.019Z,94666.50
2018-01-10T14:48:15.585Z,94661.02
2018-01-10T14:50:43.156Z,94663.64
2018-01-10T14:53:10.738Z,94653.05
2018-01-10T14:55:38.393Z,94649.33
2018-01-10T14:58:05.896Z,94645.94
2018-01-10T15:00:34.240Z,94636.89
2018-01-10T15:03:01.755Z,94633.96
2018-01-10T15:05:29.311Z,94627.09
2018-01-10T15:07:56.790Z,94629.20
2018-01-10T15:10:24.295Z,94627.95
2018-01-10T15:12:51.866Z,94622.13
2018-01-10T15:15:19.391Z,94620.92
2018-01-10T15:17:46.891Z,94621.64
2018-01-10T15:20:14.387Z,94614.84
2018-01-10T15:22:41.899Z,94618.78
2018-01-10T15:25:09.444Z,94619.53
2018-01-10T15:27:36.942Z,94608.91
2018-01-10T15:30:04.473Z,94599.52
2018-01-10T15:32:31.972Z,94598.20
2018-01-10T15:34:59.530Z,94599.86
2018-01-10T15:37:27.025Z,94596.44
2018-01-10T15:39:54.621Z,94588.73
2018-01-10T15:42:22.197Z,94593.47
2018-01-10T15:44:49.756Z,94585.09
2018-01-10T15:47:17.269Z,94578.37
2018-01-10T15:49:44.926Z,94585.96
2018-01-10T15:52:12.418Z,94576.48
2018-01-10T15:54:39.982Z,94573.41
2018-01-10T15:57:07.527Z,94571.12
2018-01-10T15:59:35.075Z,94563.88
2018-01-10T16:02:02.633Z,94559.11
2018-01-10T16:04:30.155Z,94554.52
2018-01-10T16:06:57.638Z,94559.11
2018-01-10T16:09:25.138Z,94554.78
2018-01-10T16:11:52.632Z,94553.58
2018-01-10T16:14:20.184Z,94554.94
2018-01-10T16:16:47.742Z,94546.75
2018-01-10T16:19:15.287Z,94545.42
2018-01-10T16:21:42.876Z,94547.57
2018-01-10T16:24:10.370Z,94541.67
2018-01-10T16:26:37.845Z,94544.30
2018-01-10T16:29:05.333Z,94545.63
2018-01-10T16:31:32.902Z,94542.77
2018-01-10T16:34:00.421Z,94548.70
2018-01-10T16:36:28.004Z,94548.28
2018-01-10T16:38:55.556Z,94547.01
2018-01-10T16:41:23.111Z,94537.20
2018-01-10T16:43:50.658Z,94548.58
2018-01-10T16:46:18.144Z,94547.31
2018-01-10T16:48:45.625Z,94550.31
2018-01-10T16:51:13.180Z,94557.15
2018-01-10T16:53:40.766Z,94553.66
2018-01-10T16:56:08.339Z,94551.89
2018-01-10T16:58:35.817Z,94546.30
2018-01-10T17:01:03.425Z,94540.31
2018-01-10T17:03:30.975Z,94539.80
2018-01-10T17:05:58.534Z,94539.38
2018-01-10T17:08:26.009Z,94537.66
2018-01-10T17:10:53.519Z,94544.08
2018-01-10T17:13:21.030Z,94541.52
2018-01-10T17:15:48.523Z,94546.70
2018-01-10T17:18:16.034Z,94548.81
2018-01-10T17:20:43.514Z,94546.59
2018-01-10T17:23:11.072Z,94545.31
2018-01-10T17:25:38.651Z,94551.66
2018-01-10T17:28:06.140Z,94548.28
2018-01-10T17:30:33.698Z,94550.87
2018-01-10T17:33:01.185Z,94540.09
2018-01-10T17:35:28.723Z,94544.27
2018-01-10T17:37:56.184Z,94539.53
2018-01-10T17:40:23.669Z,94531.72
2018-01-10T17:42:51.254Z,94535.05
2018-01-10T17:45:18.764Z,94528.22
2018-01-10T17:47:46.246Z,94526.53
2018-01-10T17:50:13.797Z,94528.45
2018-01-10T17:52:41.287Z,94527.39
2018-01-10T17:55:08.834Z,94524.47
2018-01-10T17:57:36.400Z,94527.44
2018-01-10T18:00:03.972Z,94527.02
2018-01-10T18:02:31.469Z,94523.97
2018-01-10T18:04:59.035Z,94529.37
2018-01-10T18:07:26.862Z,94526.00
2018-01-10T18:09:54.426Z,94527.09
2018-01-10T18:12:22.506Z,94530.28
2018-01-10T18:14:51.148Z,94523.52
2018-01-10T18:17:18.725Z,94519.41
2018-01-10T18:19:46.303Z,94521.30
2018-01-10T18:22:13.804Z,94518.13
2018-01-10T18:24:41.291Z,94517.70
2018-01-10T18:27:08.875Z,94523.83
2018-01-10T18:29:36.435Z,94518.94
2018-01-10T18:32:03.950Z,94521.45
2018-01-10T18:34:31.505Z,94519.64
2018-01-10T18:36:59.071Z,94514.91
2018-01-10T18:39:26.631Z,94518.54
2018-01-10T18:41:54.130Z,94518.05
2018-01-10T18:44:21.735Z,94520.03
2018-01-10T18:46:49.319Z,94521.61
2018-01-10T18:49:16.884Z,94519.77
2018-01-10T18:51:44.452Z,94514.98
2018-01-10T18:54:12.060Z,94511.23
2018-01-10T18:56:39.571Z,94508.83
2018-01-10T18:59:07.164Z,94495.44
2018-01-10T19:01:34.746Z,94496.22
2018-01-10T19:04:02.261Z,94492.34
2018-01-10T19:06:29.833Z,94491.89
2018-01-10T19:08:57.325Z,94502.16
2018-01-10T19:11:24.896Z,94499.42
2018-01-10T19:13:52.556Z,94503.09
2018-01-10T19:16:20.089Z,94499.73
2018-01-10T19:18:47.592Z,94494.80
2018-01-10T19:21:15.138Z,94494.38
2018-01-10T19:23:42.673Z,94493.09
2018-01-10T19:26:10.165Z,94495.65
2018-01-10T19:28:37.661Z,94490.13
2018-01-10T19:31:05.183Z,94491.48
2018-01-10T19:33:32.704Z,94481.41
2018-01-10T19:36:00.209Z,94471.84
2018-01-10T19:38:27.833Z,94477.66
2018-01-10T19:40:55.338Z,94476.76
2018-01-10T19:43:22.908Z,94469.34
2018-01-10T19:45:50.430Z,94463.37
2018-01-10T19:48:17.964Z,94466.08
2018-01-10T19:50:45.528Z,94468.84
2018-01-10T19:53:13.111Z,94467.72
2018-01-10T19:55:40.675Z,94471.30
2018-01-10T19:58:08.237Z,94468.89
2018-01-10T20:00:35.887Z,94462.36
2018-01-10T20:03:03.464Z,94463.14
2018-01-10T20:05:30.975Z,94465.38
2018-01-10T20:07:58.533Z,94457.82
2018-01-10T20:10:26.100Z,94453.73
2018-01-10T20:12:53.679Z,94441.48
2018-01-10T20:15:21.235Z,94446.70
2018-01-10T20:17:48.778Z,94438.63
2018-01-10T20:20:16.369Z,94440.06
2018-01-10T20:22:43.872Z,94434.12
2018-01-10T20:25:11.451Z,94426.21
2018-01-10T20:27:38.960Z,94429.59
2018-01-10T20:30:06.450Z,94429.22
2018-01-10T20:32:33.995Z,94425.88
2018-01-10T20:35:01.498Z,94416.97
2018-01-10T20:37:29.033Z,94407.66
2018-01-10T20:39:56.525Z,94410.28
2018-01-10T20:42:24.462Z,94404.39
2018-01-10T20:44:52.040Z,94401.39
2018-01-10T20:47:19.612Z,94406.54
2018-01-10T20:49:47.109Z,94406.54
2018-01-10T20:52:14.673Z,94399.40
2018-01-10T20:54:42.182Z,94401.95
2018-01-10T20:57:09.776Z,94397.41
2018-01-10T20:59:37.341Z,94400.42
2018-01-10T21:02:04.904Z,94402.16
2018-01-10T21:04:32.472Z,94400.02
2018-01-10T21:07:00.040Z,94397.87
2018-01-10T21:09:27.551Z,94397.91
2018-01-10T21:11:55.045Z,94401.41
2018-01-10T21:14:22.533Z,94406.97
2018-01-10T21:16:50.028Z,94407.91
2018-01-10T21:19:17.604Z,94405.77
2018-01-10T21:21:45.135Z,94409.93
2018-01-10T21:24:12.626Z,94402.38
2018-01-10T21:26:40.116Z,94389.70
2018-01-10T21:29:07.621Z,94396.98
2018-01-10T21:31:35.121Z,94394.92
2018-01-10T21:34:02.609Z,94389.81
2018-01-10T21:36:30.093Z,94387.30
2018-01-10T21:38:57.760Z,94387.30
2018-01-10T21:41:25.344Z,94386.50
2018-01-10T21:43:52.846Z,94390.38
2018-01-10T21:46:20.333Z,94367.76
2018-01-10T21:48:47.934Z,94384.41
2018-01-10T21:51:15.430Z,94379.75
2018-01-10T21:53:42.918Z,94377.27
2018-01-10T21:56:10.480Z,94375.21
2018-01-10T21:58:38.035Z,94370.10
2018-01-10T22:01:05.623Z,94369.69
2018-01-10T22:03:33.196Z,94370.97
2018-01-10T22:06:00.760Z,94372.20
2018-01-10T22:08:28.320Z,94371.34
2018-01-10T22:10:55.879Z,94364.09
2018-01-10T22:13:23.369Z,94359.06
2018-01-10T22:15:50.885Z,94356.09
2018-01-10T22:18:18.451Z,94350.69
2018-01-10T22:20:46.009Z,94346.00
2018-01-10T22:23:13.564Z,94346.52
2018-01-10T22:25:41.120Z,94344.76
2018-01-10T22:28:08.704Z,94343.89
2018-01-10T22:30:36.264Z,94331.08
2018-01-10T22:33:03.774Z,94323.72
2018-01-10T22:35:31.270Z,94325.11
2018-01-10T22:37:58.833Z,94323.42
2018-01-10T22:40:26.420Z,94315.80
2018-01-10T22:42:53.978Z,94323.99
2018-01-10T22:45:21.546Z,94318.88
2018-01-10T22:47:49.105Z,94316.28
2018-01-10T22:50:16.608Z,94306.86
2018-01-10T22:52:44.096Z,94305.59
2018-01-10T22:55:11.664Z,94306.78
2018-01-10T22:57:39.194Z,94298.75
2018-01-10T23:00:06.715Z,94301.34
2018-01-10T23:02:34.280Z,94296.23
2018-01-10T23:05:01.858Z,94296.77
2018-01-10T23:07:29.354Z,94295.94
2018-01-10T23:09:56.851Z,94289.52
2018-01-10T23:12:24.406Z,94289.10
2018-01-10T23:14:51.972Z,94286.21
2018-01-10T23:17:19.481Z,94290.05
2018-01-10T23:19:47.044Z,94282.38
2018-01-10T23:22:14.608Z,94279.45
2018-01-10T23:24:42.094Z,94273.53
2018-01-10T23:27:09.585Z,94268.09
2018-01-10T23:29:37.106Z,94265.45
2018-01-10T23:32:04.657Z,94261.58
2018-01-10T23:34:32.227Z,94264.09
2018-01-10T23:36:59.718Z,94252.60
2018-01-10T23:39:27.287Z,94252.53
2018-01-10T23:41:54.803Z,94246.52
2018-01-10T23:46:56.271Z,94243.14
2018-01-10T23:49:23.836Z,94245.16
2018-01-10T23:51:51.335Z,94238.48
2018-01-10T23:54:18.896Z,94238.48
2018-01-10T23:56:46.463Z,94233.86
2018-01-10T23:59:13.987Z,94230.48
